createdAt,value
2023-05-08T00:01:27.785Z,68.59
2023-05-08T00:03:58.288Z,68.46
2023-05-08T00:06:30.079Z,68.48
2023-05-08T00:09:00.241Z,68.31
2023-05-08T00:11:30.492Z,67.88
2023-05-08T00:14:02.083Z,68.12
2023-05-08T00:16:32.694Z,67.36
2023-05-08T00:19:03.083Z,67.98
2023-05-08T00:21:33.862Z,67.96
2023-05-08T00:24:04.035Z,68.37
2023-05-08T00:26:34.484Z,67.60
2023-05-08T00:29:06.426Z,68.13
2023-05-08T00:31:37.200Z,68.32
2023-05-08T00:34:07.423Z,68.07
2023-05-08T00:36:37.646Z,68.29
2023-05-08T00:39:07.740Z,68.00
2023-05-08T00:41:38.247Z,68.19
2023-05-08T00:44:08.531Z,68.05
2023-05-08T00:46:40.137Z,68.02
2023-05-08T00:49:16.625Z,68.21
2023-05-08T00:51:53.779Z,68.08
2023-05-08T00:54:24.500Z,68.04
2023-05-08T00:56:56.619Z,68.15
2023-05-08T00:59:29.206Z,67.90
2023-05-08T01:01:59.627Z,67.87
2023-05-08T01:04:30.307Z,67.66
2023-05-08T01:07:00.621Z,67.16
2023-05-08T01:09:30.778Z,67.23
2023-05-08T01:12:22.324Z,66.86
2023-05-08T01:15:27.077Z,66.69
2023-05-08T01:18:09.519Z,66.75
2023-05-08T01:20:56.378Z,66.24
2023-05-08T01:23:54.053Z,66.12
2023-05-08T01:27:01.672Z,65.77
2023-05-08T01:29:59.533Z,65.68
2023-05-08T01:32:39.010Z,65.82
2023-05-08T01:35:44.789Z,65.70
2023-05-08T01:38:38.396Z,65.68
2023-05-08T01:41:23.620Z,65.74
2023-05-08T01:44:14.329Z,65.71
2023-05-08T01:46:48.407Z,65.65
2023-05-08T01:49:32.882Z,65.46
2023-05-08T01:52:11.061Z,65.14
2023-05-08T01:54:52.312Z,65.35
2023-05-08T01:57:24.387Z,65.37
2023-05-08T01:59:57.096Z,65.39
2023-05-08T02:02:28.901Z,65.30
2023-05-08T02:05:00.232Z,65.37
2023-05-08T02:07:31.225Z,65.50
2023-05-08T02:10:03.267Z,65.04
2023-05-08T02:12:35.334Z,65.19
2023-05-08T02:15:06.514Z,64.99
2023-05-08T02:17:39.337Z,64.85
2023-05-08T02:20:17.006Z,64.98
2023-05-08T02:22:50.087Z,64.95
2023-05-08T02:25:21.741Z,65.14
2023-05-08T02:27:54.976Z,65.09
2023-05-08T02:30:28.815Z,65.21
2023-05-08T02:33:01.400Z,65.12
2023-05-08T02:35:33.929Z,64.50
2023-05-08T02:38:05.962Z,64.70
2023-05-08T02:40:37.031Z,64.53
2023-05-08T02:43:08.486Z,64.38
2023-05-08T02:45:46.117Z,64.22
2023-05-08T02:48:31.854Z,64.38
2023-05-08T02:51:38.085Z,64.43
2023-05-08T02:54:34.974Z,64.34
2023-05-08T02:57:21.474Z,64.46
2023-05-08T03:00:11.264Z,63.89
2023-05-08T03:02:51.133Z,63.89
2023-05-08T03:05:43.712Z,63.53
2023-05-08T03:08:31.075Z,63.44
2023-05-08T03:11:06.551Z,63.55
2023-05-08T03:13:38.957Z,63.10
2023-05-08T03:16:14.358Z,63.35
2023-05-08T03:18:56.609Z,62.85
2023-05-08T03:21:31.526Z,62.93
2023-05-08T03:24:05.875Z,63.11
2023-05-08T03:26:36.849Z,63.34
2023-05-08T03:29:09.017Z,62.96
2023-05-08T03:31:40.822Z,62.65
2023-05-08T03:34:12.053Z,62.81
2023-05-08T03:36:43.377Z,63.32
2023-05-08T03:39:13.519Z,63.18
2023-05-08T03:41:43.743Z,62.85
2023-05-08T03:44:14.939Z,62.76
2023-05-08T03:46:45.798Z,62.76
2023-05-08T03:49:18.249Z,63.09
2023-05-08T03:51:49.736Z,62.91
2023-05-08T03:54:19.683Z,63.01
2023-05-08T03:56:50.393Z,63.00
2023-05-08T03:59:32.698Z,62.91
2023-05-08T04:02:25.072Z,62.91
2023-05-08T04:05:12.607Z,62.95
2023-05-08T04:08:07.864Z,62.87
2023-05-08T04:10:49.941Z,62.72
2023-05-08T04:13:31.346Z,62.92
2023-05-08T04:16:27.466Z,62.73
2023-05-08T04:19:05.374Z,62.76
2023-05-08T04:21:38.130Z,62.64
2023-05-08T04:24:14.329Z,62.61
2023-05-08T04:26:47.310Z,62.52
2023-05-08T04:29:20.579Z,62.50
2023-05-08T04:31:53.370Z,62.59
2023-05-08T04:34:24.416Z,62.66
2023-05-08T04:36:55.155Z,62.69
2023-05-08T04:39:25.570Z,62.62
2023-05-08T04:41:58.025Z,62.53
2023-05-08T04:44:29.021Z,62.53
2023-05-08T04:46:59.349Z,62.30
2023-05-08T04:49:29.839Z,62.01
2023-05-08T04:52:00.310Z,61.98
2023-05-08T04:54:30.813Z,62.15
2023-05-08T04:57:01.289Z,61.80
2023-05-08T04:59:32.055Z,62.20
2023-05-08T05:02:04.907Z,62.05
2023-05-08T05:04:36.837Z,61.94
2023-05-08T05:07:08.465Z,61.91
2023-05-08T05:09:39.652Z,61.49
2023-05-08T05:12:11.055Z,61.01
2023-05-08T05:14:41.621Z,61.07
2023-05-08T05:17:11.964Z,61.14
2023-05-08T05:19:42.583Z,60.90
2023-05-08T05:22:13.633Z,61.30
2023-05-08T05:24:44.605Z,60.68
2023-05-08T05:27:14.923Z,60.87
2023-05-08T05:29:45.405Z,60.87
2023-05-08T05:32:15.711Z,60.75
2023-05-08T05:34:46.146Z,60.67
2023-05-08T05:37:16.440Z,60.51
2023-05-08T05:39:46.786Z,60.77
2023-05-08T05:42:17.592Z,60.16
2023-05-08T05:44:48.084Z,60.16
2023-05-08T05:47:18.590Z,60.13
2023-05-08T05:49:52.754Z,60.08
2023-05-08T05:52:23.837Z,59.84
2023-05-08T05:54:55.049Z,59.73
2023-05-08T05:57:25.482Z,59.67
2023-05-08T05:59:55.849Z,59.40
2023-05-08T06:02:26.983Z,59.21
2023-05-08T06:04:57.444Z,58.97
2023-05-08T06:07:27.683Z,58.99
2023-05-08T06:09:58.658Z,58.69
2023-05-08T06:12:30.479Z,58.60
2023-05-08T06:15:01.647Z,58.28
2023-05-08T06:17:32.667Z,58.16
2023-05-08T06:20:02.844Z,58.37
2023-05-08T06:22:33.685Z,58.28
2023-05-08T06:25:03.903Z,57.93
2023-05-08T06:27:34.270Z,58.01
2023-05-08T06:30:05.143Z,57.65
2023-05-08T06:32:35.606Z,57.51
2023-05-08T06:35:06.373Z,57.69
2023-05-08T06:37:36.731Z,57.50
2023-05-08T06:40:12.110Z,57.29
2023-05-08T06:42:45.845Z,57.22
2023-05-08T06:45:16.306Z,56.96
2023-05-08T06:47:46.885Z,57.21
2023-05-08T06:50:17.190Z,56.90
2023-05-08T06:52:47.679Z,56.55
2023-05-08T06:55:17.991Z,56.62
2023-05-08T06:57:48.885Z,56.33
2023-05-08T07:00:19.227Z,56.43
2023-05-08T07:02:49.400Z,55.94
2023-05-08T07:05:20.654Z,55.70
2023-05-08T07:07:51.026Z,56.12
2023-05-08T07:10:23.570Z,55.78
2023-05-08T07:12:53.949Z,55.66
2023-05-08T07:15:26.597Z,55.25
2023-05-08T07:17:57.523Z,54.90
2023-05-08T07:20:27.774Z,54.74
2023-05-08T07:22:57.989Z,54.42
2023-05-08T07:25:28.340Z,54.07
2023-05-08T07:28:01.003Z,53.95
2023-05-08T07:30:31.818Z,53.56
2023-05-08T07:33:02.005Z,53.67
2023-05-08T07:35:34.150Z,53.55
2023-05-08T07:38:04.296Z,53.30
2023-05-08T07:40:34.691Z,53.52
2023-05-08T07:43:05.004Z,53.61
2023-05-08T07:45:35.498Z,52.81
2023-05-08T07:48:05.922Z,52.54
2023-05-08T07:50:36.836Z,52.46
2023-05-08T07:53:07.107Z,52.37
2023-05-08T07:55:37.562Z,52.56
2023-05-08T07:58:07.852Z,52.56
2023-05-08T08:00:39.060Z,52.07
2023-05-08T08:03:09.694Z,52.16
2023-05-08T08:05:40.122Z,52.09
2023-05-08T08:08:10.420Z,52.06
2023-05-08T08:10:42.015Z,52.20
2023-05-08T08:13:12.413Z,51.90
2023-05-08T08:15:43.803Z,51.74
2023-05-08T08:18:14.174Z,51.66
2023-05-08T08:20:44.663Z,51.57
2023-05-08T08:23:14.931Z,51.22
2023-05-08T08:25:45.204Z,51.48
2023-05-08T08:28:15.515Z,51.64
2023-05-08T08:30:45.832Z,51.24
2023-05-08T08:33:17.576Z,51.54
2023-05-08T08:35:49.354Z,50.91
2023-05-08T08:38:19.652Z,50.79
2023-05-08T08:40:50.056Z,50.92
2023-05-08T08:43:20.701Z,50.55
2023-05-08T08:45:50.893Z,50.09
2023-05-08T08:48:22.921Z,50.06
2023-05-08T08:50:56.224Z,49.91
2023-05-08T08:53:32.484Z,49.91
2023-05-08T08:56:04.693Z,49.78
2023-05-08T08:58:41.895Z,49.68
2023-05-08T09:01:17.878Z,50.13
2023-05-08T09:03:49.757Z,49.79
2023-05-08T09:06:21.194Z,49.59
2023-05-08T09:08:51.446Z,49.88
2023-05-08T09:11:21.756Z,49.89
2023-05-08T09:13:51.972Z,49.91
2023-05-08T09:16:22.333Z,49.89
2023-05-08T09:18:52.793Z,49.79
2023-05-08T09:21:25.532Z,49.95
2023-05-08T09:23:59.649Z,50.19
2023-05-08T09:26:39.771Z,50.22
2023-05-08T09:29:24.549Z,50.02
2023-05-08T09:31:56.236Z,50.11
2023-05-08T09:34:31.696Z,50.16
2023-05-08T09:37:07.942Z,50.20
2023-05-08T09:39:38.243Z,50.43
2023-05-08T09:42:08.680Z,50.55
2023-05-08T09:44:56.612Z,50.62
2023-05-08T09:47:27.864Z,50.77
2023-05-08T09:50:10.362Z,50.86
2023-05-08T09:52:42.420Z,50.75
2023-05-08T09:55:13.989Z,51.06
2023-05-08T09:58:02.034Z,50.97
2023-05-08T10:00:32.485Z,51.00
2023-05-08T13:18:21.498Z,53.37
2023-05-08T13:20:51.828Z,54.00
2023-05-08T13:23:22.744Z,54.57
2023-05-08T13:25:53.779Z,55.14
2023-05-08T13:28:24.523Z,55.04
2023-05-08T13:30:54.906Z,55.28
2023-05-08T13:33:25.315Z,55.34
2023-05-08T13:35:57.624Z,55.28
2023-05-08T13:38:27.922Z,55.78
2023-05-08T13:40:58.114Z,55.99
2023-05-08T13:43:28.507Z,55.97
2023-05-08T13:45:58.802Z,56.07
2023-05-08T13:48:29.172Z,56.08
2023-05-08T13:50:59.373Z,56.50
2023-05-08T13:53:29.671Z,56.23
2023-05-08T13:56:00.098Z,56.12
2023-05-08T13:58:30.451Z,56.13
2023-05-08T14:01:10.369Z,56.40
2023-05-08T14:03:44.475Z,56.71
2023-05-08T14:06:14.971Z,56.98
2023-05-08T14:08:49.606Z,56.73
2023-05-08T14:11:21.936Z,56.16
2023-05-08T23:03:34.264Z,63.40
2023-05-08T23:06:04.626Z,63.09
2023-05-08T23:08:34.817Z,63.22
2023-05-08T23:11:04.933Z,63.50
2023-05-08T23:13:35.329Z,63.36
2023-05-08T23:16:06.269Z,63.09
2023-05-08T23:18:36.935Z,63.52
2023-05-08T23:21:08.899Z,63.26
2023-05-08T23:23:40.026Z,63.23
2023-05-08T23:26:10.368Z,63.15
2023-05-08T23:28:41.231Z,63.19
2023-05-08T23:31:11.530Z,63.05
2023-05-08T23:33:43.313Z,63.06
2023-05-08T23:36:15.282Z,62.93
2023-05-08T23:38:45.748Z,63.12
2023-05-08T23:41:16.257Z,62.94
2023-05-08T23:43:46.756Z,63.13
2023-05-08T23:46:16.988Z,63.21
2023-05-08T23:48:47.428Z,63.17
2023-05-08T23:51:17.709Z,63.10
2023-05-08T23:53:47.994Z,63.24
2023-05-08T23:56:18.296Z,63.03
2023-05-08T23:58:48.558Z,63.23
